SLRF weather

Refugio Airport
Velasco, Santa Cruz Department, Bolivia

Public forecast

Using degrees Celsius for public forecast. Weather courtesy of forecast.io.

METAR (pilot weather report)

Report is more than 2 hours old.

Closest report is Capit├ín Av. Juan Cochamanidis S. Airport, 97.4 nm (180.4 km) S. Retrieved 2019/05/25 23:00 UTC (4 hours ago):

SLSI 252300Z 00000KT 9999 NSC 25/18 Q1011

TAF (pilot weather forecast)

Forecast is more than 12 hours old.

Closest forecast is Teniente Av. Jorge Henrich Arauz Airport, 225.6 nm (417.8 km) W. Retrieved 2019/05/25 00:26 UTC (1 day ago):

TAF SLTR 252200Z 2600/2624 00000KT 9999 NSC TX29/2620Z TN15/2611Z TEMPO 2616/2620 33010KT SCT070